sensor_id;sensor_type;location;lat;lon;timestamp;temperature;humidity
39033;DHT22;24794;51.982;5.878;2023-12-20T00:00:01;7.30;99.90
39033;DHT22;24794;51.982;5.878;2023-12-20T00:01:01;7.30;99.90
39033;DHT22;24794;51.982;5.878;2023-12-20T00:02:02;7.30;99.90
39033;DHT22;24794;51.982;5.878;2023-12-20T00:03:03;7.40;99.90
39033;DHT22;24794;51.982;5.878;2023-12-20T00:04:04;7.30;99.90
39033;DHT22;24794;51.982;5.878;2023-12-20T00:05:05;7.30;99.90
39033;DHT22;24794;51.982;5.878;2023-12-20T00:06:06;7.40;99.90
39033;DHT22;24794;51.982;5.878;2023-12-20T00:07:06;7.40;99.90
39033;DHT22;24794;51.982;5.878;2023-12-20T00:08:07;7.40;99.90
39033;DHT22;24794;51.982;5.878;2023-12-20T00:09:07;7.40;99.90
39033;DHT22;24794;51.982;5.878;2023-12-20T00:10:08;7.30;99.90
39033;DHT22;24794;51.982;5.878;2023-12-20T00:11:09;7.30;99.90
39033;DHT22;24794;51.982;5.878;2023-12-20T00:12:09;7.30;99.90
39033;DHT22;24794;51.982;5.878;2023-12-20T00:13:10;7.30;99.90
39033;DHT22;24794;51.982;5.878;2023-12-20T00:14:11;7.30;99.90
39033;DHT22;24794;51.982;5.878;2023-12-20T00:15:11;7.30;99.90
39033;DHT22;24794;51.982;5.878;2023-12-20T00:16:12;7.30;99.90
39033;DHT22;24794;51.982;5.878;2023-12-20T00:17:13;7.30;99.90
39033;DHT22;24794;51.982;5.878;2023-12-20T00:18:13;7.30;99.90
39033;DHT22;24794;51.982;5.878;2023-12-20T00:19:14;7.30;99.90
39033;DHT22;24794;51.982;5.878;2023-12-20T00:20:14;7.30;99.90
39033;DHT22;24794;51.982;5.878;2023-12-20T00:21:15;7.30;99.90
39033;DHT22;24794;51.982;5.878;2023-12-20T00:22:15;7.30;99.90
39033;DHT22;24794;51.982;5.878;2023-12-20T00:23:16;7.30;99.90
39033;DHT22;24794;51.982;5.878;2023-12-20T00:24:16;7.30;99.90
39033;DHT22;24794;51.982;5.878;2023-12-20T00:25:17;7.30;99.90
39033;DHT22;24794;51.982;5.878;2023-12-20T00:26:18;7.30;99.90
39033;DHT22;24794;51.982;5.878;2023-12-20T00:27:18;7.30;99.90
39033;DHT22;24794;51.982;5.878;2023-12-20T00:28:19;7.30;99.90
39033;DHT22;24794;51.982;5.878;2023-12-20T00:29:19;7.30;99.90
39033;DHT22;24794;51.982;5.878;2023-12-20T00:30:20;7.30;99.90
39033;DHT22;24794;51.982;5.878;2023-12-20T00:31:20;7.30;99.90
39033;DHT22;24794;51.982;5.878;2023-12-20T00:32:21;7.30;99.90
39033;DHT22;24794;51.982;5.878;2023-12-20T00:33:21;7.20;99.90
39033;DHT22;24794;51.982;5.878;2023-12-20T00:34:22;7.30;99.90
39033;DHT22;24794;51.982;5.878;2023-12-20T00:35:22;7.30;99.90
39033;DHT22;24794;51.982;5.878;2023-12-20T00:36:23;7.20;99.90
39033;DHT22;24794;51.982;5.878;2023-12-20T00:37:23;7.20;99.90
39033;DHT22;24794;51.982;5.878;2023-12-20T00:38:24;7.20;99.90
39033;DHT22;24794;51.982;5.878;2023-12-20T00:39:25;7.20;99.90
39033;DHT22;24794;51.982;5.878;2023-12-20T00:40:25;7.20;99.90
39033;DHT22;24794;51.982;5.878;2023-12-20T00:41:26;7.20;99.90
39033;DHT22;24794;51.982;5.878;2023-12-20T00:42:26;7.20;99.90
39033;DHT22;24794;51.982;5.878;2023-12-20T00:43:27;7.20;99.90
39033;DHT22;24794;51.982;5.878;2023-12-20T00:44:28;7.20;99.90
39033;DHT22;24794;51.982;5.878;2023-12-20T00:45:28;7.20;99.90
39033;DHT22;24794;51.982;5.878;2023-12-20T00:46:29;7.20;99.90
39033;DHT22;24794;51.982;5.878;2023-12-20T00:47:29;7.20;99.90
39033;DHT22;24794;51.982;5.878;2023-12-20T00:48:30;7.10;99.90
39033;DHT22;24794;51.982;5.878;2023-12-20T00:49:31;7.20;99.90
39033;DHT22;24794;51.982;5.878;2023-12-20T00:50:32;7.10;99.90
39033;DHT22;24794;51.982;5.878;2023-12-20T00:51:32;7.10;99.90
39033;DHT22;24794;51.982;5.878;2023-12-20T00:52:33;7.10;99.90
39033;DHT22;24794;51.982;5.878;2023-12-20T00:53:33;7.10;99.90
39033;DHT22;24794;51.982;5.878;2023-12-20T00:54:34;7.10;99.90
39033;DHT22;24794;51.982;5.878;2023-12-20T00:55:35;7.10;99.90
39033;DHT22;24794;51.982;5.878;2023-12-20T00:56:35;7.00;99.90
39033;DHT22;24794;51.982;5.878;2023-12-20T00:57:36;7.00;99.90
39033;DHT22;24794;51.982;5.878;2023-12-20T00:58:36;7.00;99.90
39033;DHT22;24794;51.982;5.878;2023-12-20T00:59:37;7.00;99.90
39033;DHT22;24794;51.982;5.878;2023-12-20T01:00:37;7.00;99.90
39033;DHT22;24794;51.982;5.878;2023-12-20T01:01:38;7.00;99.90
39033;DHT22;24794;51.982;5.878;2023-12-20T01:02:40;7.00;99.90
39033;DHT22;24794;51.982;5.878;2023-12-20T01:03:40;7.00;99.90
39033;DHT22;24794;51.982;5.878;2023-12-20T01:04:41;7.00;99.90
39033;DHT22;24794;51.982;5.878;2023-12-20T01:05:41;7.00;99.90
39033;DHT22;24794;51.982;5.878;2023-12-20T01:06:42;7.00;99.90
39033;DHT22;24794;51.982;5.878;2023-12-20T01:07:42;7.00;99.90
39033;DHT22;24794;51.982;5.878;2023-12-20T01:08:43;7.00;99.90
39033;DHT22;24794;51.982;5.878;2023-12-20T01:09:43;7.00;99.90
39033;DHT22;24794;51.982;5.878;2023-12-20T01:10:44;6.90;99.90
39033;DHT22;24794;51.982;5.878;2023-12-20T01:11:45;7.00;99.90
39033;DHT22;24794;51.982;5.878;2023-12-20T01:12:46;6.90;99.90
39033;DHT22;24794;51.982;5.878;2023-12-20T01:13:47;7.00;99.90
39033;DHT22;24794;51.982;5.878;2023-12-20T01:14:47;6.90;99.90
39033;DHT22;24794;51.982;5.878;2023-12-20T01:15:48;6.90;99.90
39033;DHT22;24794;51.982;5.878;2023-12-20T01:16:48;6.90;99.90
39033;DHT22;24794;51.982;5.878;2023-12-20T01:17:49;6.90;99.90
39033;DHT22;24794;51.982;5.878;2023-12-20T01:18:50;6.90;99.90
39033;DHT22;24794;51.982;5.878;2023-12-20T01:19:50;6.90;99.90
39033;DHT22;24794;51.982;5.878;2023-12-20T01:20:51;6.90;99.90
39033;DHT22;24794;51.982;5.878;2023-12-20T01:21:51;6.90;99.90
39033;DHT22;24794;51.982;5.878;2023-12-20T01:22:52;6.90;99.90
39033;DHT22;24794;51.982;5.878;2023-12-20T01:23:53;6.80;99.90
39033;DHT22;24794;51.982;5.878;2023-12-20T01:24:53;6.80;99.90
39033;DHT22;24794;51.982;5.878;2023-12-20T01:25:54;6.80;99.90
39033;DHT22;24794;51.982;5.878;2023-12-20T01:26:54;6.80;99.90
39033;DHT22;24794;51.982;5.878;2023-12-20T01:27:55;6.80;99.90
39033;DHT22;24794;51.982;5.878;2023-12-20T01:28:55;6.80;99.90
39033;DHT22;24794;51.982;5.878;2023-12-20T01:29:56;6.80;99.90
39033;DHT22;24794;51.982;5.878;2023-12-20T01:30:57;6.80;99.90
39033;DHT22;24794;51.982;5.878;2023-12-20T01:31:58;6.80;99.90
39033;DHT22;24794;51.982;5.878;2023-12-20T01:33:00;6.80;99.90
39033;DHT22;24794;51.982;5.878;2023-12-20T01:34:01;6.80;99.90
39033;DHT22;24794;51.982;5.878;2023-12-20T01:35:02;6.70;99.90
39033;DHT22;24794;51.982;5.878;2023-12-20T01:36:03;6.70;99.90
39033;DHT22;24794;51.982;5.878;2023-12-20T01:37:04;6.80;99.90
39033;DHT22;24794;51.982;5.878;2023-12-20T01:38:04;6.70;99.90
39033;DHT22;24794;51.982;5.878;2023-12-20T01:39:05;6.70;99.90
39033;DHT22;24794;51.982;5.878;2023-12-20T01:40:06;6.70;99.90
39033;DHT22;24794;51.982;5.878;2023-12-20T01:41:06;6.70;99.90
39033;DHT22;24794;51.982;5.878;2023-12-20T01:42:07;6.70;99.90
39033;DHT22;24794;51.982;5.878;2023-12-20T01:43:08;6.70;99.90
39033;DHT22;24794;51.982;5.878;2023-12-20T01:44:08;6.70;99.90
39033;DHT22;24794;51.982;5.878;2023-12-20T01:45:09;6.70;99.90
39033;DHT22;24794;51.982;5.878;2023-12-20T01:46:10;6.70;99.90
39033;DHT22;24794;51.982;5.878;2023-12-20T01:47:12;6.70;99.90
39033;DHT22;24794;51.982;5.878;2023-12-20T01:48:13;6.70;99.90
39033;DHT22;24794;51.982;5.878;2023-12-20T01:49:15;6.70;99.90
39033;DHT22;24794;51.982;5.878;2023-12-20T01:50:16;6.70;99.90
39033;DHT22;24794;51.982;5.878;2023-12-20T01:51:17;6.70;99.90
39033;DHT22;24794;51.982;5.878;2023-12-20T01:52:19;6.70;99.90
39033;DHT22;24794;51.982;5.878;2023-12-20T01:53:21;6.70;99.90
39033;DHT22;24794;51.982;5.878;2023-12-20T01:54:24;6.70;99.90
39033;DHT22;24794;51.982;5.878;2023-12-20T01:55:26;6.70;99.90
39033;DHT22;24794;51.982;5.878;2023-12-20T01:56:28;6.70;99.90
39033;DHT22;24794;51.982;5.878;2023-12-20T01:57:30;6.70;99.90
39033;DHT22;24794;51.982;5.878;2023-12-20T01:58:31;6.70;99.90
39033;DHT22;24794;51.982;5.878;2023-12-20T01:59:31;6.70;99.90
39033;DHT22;24794;51.982;5.878;2023-12-20T02:00:32;6.70;99.90
39033;DHT22;24794;51.982;5.878;2023-12-20T02:01:33;6.70;99.90
39033;DHT22;24794;51.982;5.878;2023-12-20T02:02:35;6.70;99.90
39033;DHT22;24794;51.982;5.878;2023-12-20T02:03:37;6.70;99.90
39033;DHT22;24794;51.982;5.878;2023-12-20T02:04:37;6.70;99.90
39033;DHT22;24794;51.982;5.878;2023-12-20T02:05:39;6.70;99.90
39033;DHT22;24794;51.982;5.878;2023-12-20T02:06:40;6.70;99.90
39033;DHT22;24794;51.982;5.878;2023-12-20T02:07:40;6.70;99.90
39033;DHT22;24794;51.982;5.878;2023-12-20T02:08:41;6.70;99.90
39033;DHT22;24794;51.982;5.878;2023-12-20T02:09:42;6.70;99.90
39033;DHT22;24794;51.982;5.878;2023-12-20T02:10:42;6.70;99.90
39033;DHT22;24794;51.982;5.878;2023-12-20T02:11:43;6.70;99.90
39033;DHT22;24794;51.982;5.878;2023-12-20T02:12:44;6.70;99.90
39033;DHT22;24794;51.982;5.878;2023-12-20T02:13:45;6.70;99.90
39033;DHT22;24794;51.982;5.878;2023-12-20T02:14:45;6.70;99.90
39033;DHT22;24794;51.982;5.878;2023-12-20T02:15:46;6.70;99.90
39033;DHT22;24794;51.982;5.878;2023-12-20T02:16:47;6.70;99.90
39033;DHT22;24794;51.982;5.878;2023-12-20T02:17:48;6.70;99.90
39033;DHT22;24794;51.982;5.878;2023-12-20T02:18:49;6.70;99.90
39033;DHT22;24794;51.982;5.878;2023-12-20T02:19:50;6.70;99.90
39033;DHT22;24794;51.982;5.878;2023-12-20T02:20:50;6.70;99.90
39033;DHT22;24794;51.982;5.878;2023-12-20T02:22:05;6.70;99.90
39033;DHT22;24794;51.982;5.878;2023-12-20T02:23:06;6.70;99.90
39033;DHT22;24794;51.982;5.878;2023-12-20T02:24:06;6.70;99.90
39033;DHT22;24794;51.982;5.878;2023-12-20T02:25:07;6.70;99.90
39033;DHT22;24794;51.982;5.878;2023-12-20T02:26:08;6.70;99.90
39033;DHT22;24794;51.982;5.878;2023-12-20T02:27:09;6.70;99.90
39033;DHT22;24794;51.982;5.878;2023-12-20T02:28:09;6.70;99.90
39033;DHT22;24794;51.982;5.878;2023-12-20T02:29:10;6.70;99.90
39033;DHT22;24794;51.982;5.878;2023-12-20T02:30:10;6.70;99.90
39033;DHT22;24794;51.982;5.878;2023-12-20T02:31:11;6.80;99.90
39033;DHT22;24794;51.982;5.878;2023-12-20T02:32:12;6.80;99.90
39033;DHT22;24794;51.982;5.878;2023-12-20T02:33:14;6.80;99.90
39033;DHT22;24794;51.982;5.878;2023-12-20T02:34:15;6.70;99.90
39033;DHT22;24794;51.982;5.878;2023-12-20T02:35:16;6.70;99.90
39033;DHT22;24794;51.982;5.878;2023-12-20T02:36:16;6.80;99.90
39033;DHT22;24794;51.982;5.878;2023-12-20T02:37:17;6.80;99.90
39033;DHT22;24794;51.982;5.878;2023-12-20T02:38:17;6.80;99.90
39033;DHT22;24794;51.982;5.878;2023-12-20T02:39:20;6.80;99.90
39033;DHT22;24794;51.982;5.878;2023-12-20T02:40:21;6.80;99.90
39033;DHT22;24794;51.982;5.878;2023-12-20T02:41:21;6.80;99.90
39033;DHT22;24794;51.982;5.878;2023-12-20T02:42:22;6.80;99.90
39033;DHT22;24794;51.982;5.878;2023-12-20T02:43:22;6.80;99.90
39033;DHT22;24794;51.982;5.878;2023-12-20T02:44:23;6.80;99.90
39033;DHT22;24794;51.982;5.878;2023-12-20T02:45:23;6.80;99.90
39033;DHT22;24794;51.982;5.878;2023-12-20T02:46:24;6.80;99.90
39033;DHT22;24794;51.982;5.878;2023-12-20T02:47:24;6.80;99.90
39033;DHT22;24794;51.982;5.878;2023-12-20T02:48:25;6.80;99.90
39033;DHT22;24794;51.982;5.878;2023-12-20T02:49:25;6.80;99.90
39033;DHT22;24794;51.982;5.878;2023-12-20T02:50:26;6.80;99.90
39033;DHT22;24794;51.982;5.878;2023-12-20T02:51:27;6.80;99.90
39033;DHT22;24794;51.982;5.878;2023-12-20T02:52:28;6.80;99.90
39033;DHT22;24794;51.982;5.878;2023-12-20T02:53:29;6.90;99.90
39033;DHT22;24794;51.982;5.878;2023-12-20T02:54:29;6.90;99.90
39033;DHT22;24794;51.982;5.878;2023-12-20T02:55:30;6.90;99.90
39033;DHT22;24794;51.982;5.878;2023-12-20T02:56:32;6.90;99.90
39033;DHT22;24794;51.982;5.878;2023-12-20T02:57:33;6.90;99.90
39033;DHT22;24794;51.982;5.878;2023-12-20T02:58:36;6.90;99.90
39033;DHT22;24794;51.982;5.878;2023-12-20T02:59:36;6.90;99.90
39033;DHT22;24794;51.982;5.878;2023-12-20T03:00:37;6.90;99.90
39033;DHT22;24794;51.982;5.878;2023-12-20T03:01:44;6.90;99.90
39033;DHT22;24794;51.982;5.878;2023-12-20T03:02:45;6.90;99.90
39033;DHT22;24794;51.982;5.878;2023-12-20T03:03:45;6.90;99.90
39033;DHT22;24794;51.982;5.878;2023-12-20T03:04:46;6.90;99.90
39033;DHT22;24794;51.982;5.878;2023-12-20T03:05:46;6.90;99.90
39033;DHT22;24794;51.982;5.878;2023-12-20T03:06:47;6.90;99.90
39033;DHT22;24794;51.982;5.878;2023-12-20T03:07:47;6.90;99.90
39033;DHT22;24794;51.982;5.878;2023-12-20T03:08:48;6.90;99.90
39033;DHT22;24794;51.982;5.878;2023-12-20T03:09:48;6.90;99.90
39033;DHT22;24794;51.982;5.878;2023-12-20T03:10:49;6.90;99.90
39033;DHT22;24794;51.982;5.878;2023-12-20T03:11:50;7.00;99.90
39033;DHT22;24794;51.982;5.878;2023-12-20T03:12:50;6.90;99.90
39033;DHT22;24794;51.982;5.878;2023-12-20T03:13:51;6.90;99.90
39033;DHT22;24794;51.982;5.878;2023-12-20T03:14:51;6.90;99.90
39033;DHT22;24794;51.982;5.878;2023-12-20T03:15:52;6.90;99.90
39033;DHT22;24794;51.982;5.878;2023-12-20T03:16:52;6.90;99.90
39033;DHT22;24794;51.982;5.878;2023-12-20T03:17:53;6.90;99.90
39033;DHT22;24794;51.982;5.878;2023-12-20T03:18:53;6.90;99.90
39033;DHT22;24794;51.982;5.878;2023-12-20T03:19:54;6.90;99.90
39033;DHT22;24794;51.982;5.878;2023-12-20T03:20:54;6.90;99.90
39033;DHT22;24794;51.982;5.878;2023-12-20T03:21:55;6.90;99.90
39033;DHT22;24794;51.982;5.878;2023-12-20T03:22:55;6.90;99.90
39033;DHT22;24794;51.982;5.878;2023-12-20T03:23:56;6.90;99.90
39033;DHT22;24794;51.982;5.878;2023-12-20T03:24:56;6.90;99.90
39033;DHT22;24794;51.982;5.878;2023-12-20T03:25:57;6.90;99.90
39033;DHT22;24794;51.982;5.878;2023-12-20T03:26:57;6.90;99.90
39033;DHT22;24794;51.982;5.878;2023-12-20T03:27:58;6.90;99.90
39033;DHT22;24794;51.982;5.878;2023-12-20T03:28:58;6.90;99.90
39033;DHT22;24794;51.982;5.878;2023-12-20T03:29:59;6.90;99.90
39033;DHT22;24794;51.982;5.878;2023-12-20T03:31:00;6.90;99.90
39033;DHT22;24794;51.982;5.878;2023-12-20T03:32:00;6.90;99.90
39033;DHT22;24794;51.982;5.878;2023-12-20T03:33:01;6.90;99.90
39033;DHT22;24794;51.982;5.878;2023-12-20T03:34:01;6.90;99.90
39033;DHT22;24794;51.982;5.878;2023-12-20T03:35:02;6.90;99.90
39033;DHT22;24794;51.982;5.878;2023-12-20T03:36:02;6.90;99.90
39033;DHT22;24794;51.982;5.878;2023-12-20T03:37:03;6.90;99.90
39033;DHT22;24794;51.982;5.878;2023-12-20T03:38:03;6.90;99.90
39033;DHT22;24794;51.982;5.878;2023-12-20T03:39:04;6.90;99.90
39033;DHT22;24794;51.982;5.878;2023-12-20T03:40:05;6.90;99.90
39033;DHT22;24794;51.982;5.878;2023-12-20T03:41:07;6.80;99.90
39033;DHT22;24794;51.982;5.878;2023-12-20T03:42:07;6.90;99.90
39033;DHT22;24794;51.982;5.878;2023-12-20T03:43:08;6.80;99.90
39033;DHT22;24794;51.982;5.878;2023-12-20T03:44:08;6.80;99.90
39033;DHT22;24794;51.982;5.878;2023-12-20T03:45:09;6.80;99.90
39033;DHT22;24794;51.982;5.878;2023-12-20T03:46:10;6.80;99.90
39033;DHT22;24794;51.982;5.878;2023-12-20T03:47:10;6.80;99.90
39033;DHT22;24794;51.982;5.878;2023-12-20T03:48:11;6.80;99.90
39033;DHT22;24794;51.982;5.878;2023-12-20T03:49:11;6.80;99.90
39033;DHT22;24794;51.982;5.878;2023-12-20T03:50:12;6.80;99.90
39033;DHT22;24794;51.982;5.878;2023-12-20T03:51:12;6.80;99.90
39033;DHT22;24794;51.982;5.878;2023-12-20T03:52:13;6.80;99.90
39033;DHT22;24794;51.982;5.878;2023-12-20T03:53:13;6.80;99.90
39033;DHT22;24794;51.982;5.878;2023-12-20T03:54:14;6.80;99.90
39033;DHT22;24794;51.982;5.878;2023-12-20T03:55:15;6.80;99.90
39033;DHT22;24794;51.982;5.878;2023-12-20T03:56:16;6.80;99.90
39033;DHT22;24794;51.982;5.878;2023-12-20T03:57:16;6.80;99.90
39033;DHT22;24794;51.982;5.878;2023-12-20T03:58:17;6.80;99.90
39033;DHT22;24794;51.982;5.878;2023-12-20T03:59:18;6.80;99.90
39033;DHT22;24794;51.982;5.878;2023-12-20T04:00:19;6.80;99.90
39033;DHT22;24794;51.982;5.878;2023-12-20T04:01:19;6.80;99.90
39033;DHT22;24794;51.982;5.878;2023-12-20T04:02:20;6.80;99.90
39033;DHT22;24794;51.982;5.878;2023-12-20T04:03:20;6.80;99.90
39033;DHT22;24794;51.982;5.878;2023-12-20T04:04:21;6.80;99.90
39033;DHT22;24794;51.982;5.878;2023-12-20T04:05:21;6.80;99.90
39033;DHT22;24794;51.982;5.878;2023-12-20T04:06:22;6.80;99.90
39033;DHT22;24794;51.982;5.878;2023-12-20T04:07:22;6.80;99.90
39033;DHT22;24794;51.982;5.878;2023-12-20T04:08:23;6.80;99.90
39033;DHT22;24794;51.982;5.878;2023-12-20T04:09:24;6.80;99.90
39033;DHT22;24794;51.982;5.878;2023-12-20T04:10:24;6.80;99.90
39033;DHT22;24794;51.982;5.878;2023-12-20T04:11:25;6.80;99.90
39033;DHT22;24794;51.982;5.878;2023-12-20T04:12:27;6.90;99.90
39033;DHT22;24794;51.982;5.878;2023-12-20T04:13:27;6.90;99.90
39033;DHT22;24794;51.982;5.878;2023-12-20T04:14:28;6.90;99.90
39033;DHT22;24794;51.982;5.878;2023-12-20T04:15:28;6.90;99.90
39033;DHT22;24794;51.982;5.878;2023-12-20T04:16:29;6.90;99.90
39033;DHT22;24794;51.982;5.878;2023-12-20T04:17:29;6.90;99.90
39033;DHT22;24794;51.982;5.878;2023-12-20T04:18:30;6.90;99.90
39033;DHT22;24794;51.982;5.878;2023-12-20T04:19:32;6.90;99.90
39033;DHT22;24794;51.982;5.878;2023-12-20T04:20:32;7.00;99.90
39033;DHT22;24794;51.982;5.878;2023-12-20T04:21:33;7.00;99.90
39033;DHT22;24794;51.982;5.878;2023-12-20T04:22:33;7.00;99.90
39033;DHT22;24794;51.982;5.878;2023-12-20T04:23:34;7.00;99.90
39033;DHT22;24794;51.982;5.878;2023-12-20T04:24:34;7.00;99.90
39033;DHT22;24794;51.982;5.878;2023-12-20T04:25:35;7.00;99.90
39033;DHT22;24794;51.982;5.878;2023-12-20T04:26:35;7.00;99.90
39033;DHT22;24794;51.982;5.878;2023-12-20T04:27:36;7.00;99.90
39033;DHT22;24794;51.982;5.878;2023-12-20T04:28:36;7.00;99.90
39033;DHT22;24794;51.982;5.878;2023-12-20T04:29:37;7.00;99.90
39033;DHT22;24794;51.982;5.878;2023-12-20T04:30:38;7.10;99.90
39033;DHT22;24794;51.982;5.878;2023-12-20T04:31:38;7.10;99.90
39033;DHT22;24794;51.982;5.878;2023-12-20T04:32:39;7.10;99.90
39033;DHT22;24794;51.982;5.878;2023-12-20T04:33:39;7.10;99.90
39033;DHT22;24794;51.982;5.878;2023-12-20T04:34:40;7.10;99.90
39033;DHT22;24794;51.982;5.878;2023-12-20T04:35:40;7.10;99.90
39033;DHT22;24794;51.982;5.878;2023-12-20T04:36:43;7.10;99.90
39033;DHT22;24794;51.982;5.878;2023-12-20T04:37:43;7.10;99.90
39033;DHT22;24794;51.982;5.878;2023-12-20T04:38:44;7.10;99.90
39033;DHT22;24794;51.982;5.878;2023-12-20T04:39:44;7.10;99.90
39033;DHT22;24794;51.982;5.878;2023-12-20T04:40:45;7.10;99.90
39033;DHT22;24794;51.982;5.878;2023-12-20T04:41:45;7.10;99.90
39033;DHT22;24794;51.982;5.878;2023-12-20T04:42:47;7.10;99.90
39033;DHT22;24794;51.982;5.878;2023-12-20T04:43:48;7.10;99.90
39033;DHT22;24794;51.982;5.878;2023-12-20T04:44:48;7.10;99.90
39033;DHT22;24794;51.982;5.878;2023-12-20T04:45:49;7.10;99.90
39033;DHT22;24794;51.982;5.878;2023-12-20T04:46:50;7.20;99.90
39033;DHT22;24794;51.982;5.878;2023-12-20T04:47:51;7.10;99.90
39033;DHT22;24794;51.982;5.878;2023-12-20T04:48:51;7.20;99.90
39033;DHT22;24794;51.982;5.878;2023-12-20T04:49:52;7.10;99.90
39033;DHT22;24794;51.982;5.878;2023-12-20T04:50:52;7.20;99.90
39033;DHT22;24794;51.982;5.878;2023-12-20T04:52:08;7.10;99.90
39033;DHT22;24794;51.982;5.878;2023-12-20T04:53:29;7.10;99.90
39033;DHT22;24794;51.982;5.878;2023-12-20T04:54:29;7.20;99.90
39033;DHT22;24794;51.982;5.878;2023-12-20T04:55:30;7.20;99.90
39033;DHT22;24794;51.982;5.878;2023-12-20T04:56:31;7.20;99.90
39033;DHT22;24794;51.982;5.878;2023-12-20T04:57:31;7.20;99.90
39033;DHT22;24794;51.982;5.878;2023-12-20T04:58:32;7.20;99.90
39033;DHT22;24794;51.982;5.878;2023-12-20T04:59:32;7.20;99.90
39033;DHT22;24794;51.982;5.878;2023-12-20T05:00:33;7.20;99.90
39033;DHT22;24794;51.982;5.878;2023-12-20T05:01:33;7.20;99.90
39033;DHT22;24794;51.982;5.878;2023-12-20T05:02:37;7.20;99.90
39033;DHT22;24794;51.982;5.878;2023-12-20T05:03:38;7.20;99.90
39033;DHT22;24794;51.982;5.878;2023-12-20T05:04:38;7.20;99.90
39033;DHT22;24794;51.982;5.878;2023-12-20T05:05:39;7.20;99.90
39033;DHT22;24794;51.982;5.878;2023-12-20T05:06:39;7.20;99.90
39033;DHT22;24794;51.982;5.878;2023-12-20T05:07:40;7.20;99.90
39033;DHT22;24794;51.982;5.878;2023-12-20T05:08:40;7.20;99.90
39033;DHT22;24794;51.982;5.878;2023-12-20T05:09:41;7.30;99.90
39033;DHT22;24794;51.982;5.878;2023-12-20T05:10:41;7.30;99.90
39033;DHT22;24794;51.982;5.878;2023-12-20T05:11:42;7.30;99.90
39033;DHT22;24794;51.982;5.878;2023-12-20T05:12:42;7.30;99.90
39033;DHT22;24794;51.982;5.878;2023-12-20T05:13:43;7.30;99.90
39033;DHT22;24794;51.982;5.878;2023-12-20T05:14:44;7.30;99.90
39033;DHT22;24794;51.982;5.878;2023-12-20T05:15:44;7.30;99.90
39033;DHT22;24794;51.982;5.878;2023-12-20T05:16:45;7.30;99.90
39033;DHT22;24794;51.982;5.878;2023-12-20T05:17:45;7.40;99.90
39033;DHT22;24794;51.982;5.878;2023-12-20T05:18:48;7.40;99.90
39033;DHT22;24794;51.982;5.878;2023-12-20T05:19:48;7.40;99.90
39033;DHT22;24794;51.982;5.878;2023-12-20T05:20:50;7.40;99.90
39033;DHT22;24794;51.982;5.878;2023-12-20T05:21:51;7.40;99.90
39033;DHT22;24794;51.982;5.878;2023-12-20T05:22:52;7.40;99.90
39033;DHT22;24794;51.982;5.878;2023-12-20T05:23:52;7.40;99.90
39033;DHT22;24794;51.982;5.878;2023-12-20T05:24:53;7.40;99.90
39033;DHT22;24794;51.982;5.878;2023-12-20T05:25:54;7.40;99.90
39033;DHT22;24794;51.982;5.878;2023-12-20T05:26:54;7.40;99.90
39033;DHT22;24794;51.982;5.878;2023-12-20T05:27:55;7.50;99.90
39033;DHT22;24794;51.982;5.878;2023-12-20T05:28:56;7.40;99.90
39033;DHT22;24794;51.982;5.878;2023-12-20T05:29:56;7.50;99.90
39033;DHT22;24794;51.982;5.878;2023-12-20T05:30:57;7.40;99.90
39033;DHT22;24794;51.982;5.878;2023-12-20T05:31:58;7.50;99.90
39033;DHT22;24794;51.982;5.878;2023-12-20T05:32:59;7.40;99.90
39033;DHT22;24794;51.982;5.878;2023-12-20T05:34:00;7.40;99.90
39033;DHT22;24794;51.982;5.878;2023-12-20T05:35:00;7.50;99.90
39033;DHT22;24794;51.982;5.878;2023-12-20T05:36:01;7.50;99.90
39033;DHT22;24794;51.982;5.878;2023-12-20T05:37:01;7.50;99.90
39033;DHT22;24794;51.982;5.878;2023-12-20T05:38:02;7.50;99.90
39033;DHT22;24794;51.982;5.878;2023-12-20T05:39:03;7.50;99.90
39033;DHT22;24794;51.982;5.878;2023-12-20T05:40:08;7.50;99.90
39033;DHT22;24794;51.982;5.878;2023-12-20T05:41:10;7.50;99.90
39033;DHT22;24794;51.982;5.878;2023-12-20T05:42:11;7.60;99.90
39033;DHT22;24794;51.982;5.878;2023-12-20T05:43:12;7.50;99.90
39033;DHT22;24794;51.982;5.878;2023-12-20T05:44:12;7.50;99.90
39033;DHT22;24794;51.982;5.878;2023-12-20T05:45:14;7.50;99.90
39033;DHT22;24794;51.982;5.878;2023-12-20T05:46:14;7.50;99.90
39033;DHT22;24794;51.982;5.878;2023-12-20T05:47:15;7.50;99.90
39033;DHT22;24794;51.982;5.878;2023-12-20T05:48:15;7.50;99.90
39033;DHT22;24794;51.982;5.878;2023-12-20T05:49:16;7.50;99.90
39033;DHT22;24794;51.982;5.878;2023-12-20T05:50:16;7.60;99.90
39033;DHT22;24794;51.982;5.878;2023-12-20T05:51:17;7.60;99.90
39033;DHT22;24794;51.982;5.878;2023-12-20T05:52:18;7.60;99.90
39033;DHT22;24794;51.982;5.878;2023-12-20T05:53:19;7.60;99.90
39033;DHT22;24794;51.982;5.878;2023-12-20T05:54:19;7.60;99.90
39033;DHT22;24794;51.982;5.878;2023-12-20T05:55:20;7.60;99.90
39033;DHT22;24794;51.982;5.878;2023-12-20T05:56:20;7.60;99.90
39033;DHT22;24794;51.982;5.878;2023-12-20T05:57:21;7.60;99.90
39033;DHT22;24794;51.982;5.878;2023-12-20T05:58:21;7.60;99.90
39033;DHT22;24794;51.982;5.878;2023-12-20T05:59:22;7.60;99.90
39033;DHT22;24794;51.982;5.878;2023-12-20T06:00:22;7.60;99.90
39033;DHT22;24794;51.982;5.878;2023-12-20T06:01:23;7.60;99.90
39033;DHT22;24794;51.982;5.878;2023-12-20T06:02:23;7.60;99.90
39033;DHT22;24794;51.982;5.878;2023-12-20T06:03:24;7.70;99.90
39033;DHT22;24794;51.982;5.878;2023-12-20T06:04:24;7.60;99.90
39033;DHT22;24794;51.982;5.878;2023-12-20T06:05:25;7.70;99.90
39033;DHT22;24794;51.982;5.878;2023-12-20T06:06:25;7.60;99.90
39033;DHT22;24794;51.982;5.878;2023-12-20T06:07:26;7.60;99.90
39033;DHT22;24794;51.982;5.878;2023-12-20T06:08:26;7.70;99.90
39033;DHT22;24794;51.982;5.878;2023-12-20T06:09:27;7.70;99.90
39033;DHT22;24794;51.982;5.878;2023-12-20T06:10:28;7.70;99.90
39033;DHT22;24794;51.982;5.878;2023-12-20T06:11:28;7.70;99.90
39033;DHT22;24794;51.982;5.878;2023-12-20T06:12:29;7.70;99.90
39033;DHT22;24794;51.982;5.878;2023-12-20T06:13:32;7.70;99.90
39033;DHT22;24794;51.982;5.878;2023-12-20T06:14:32;7.70;99.90
39033;DHT22;24794;51.982;5.878;2023-12-20T06:15:33;7.70;99.90
39033;DHT22;24794;51.982;5.878;2023-12-20T06:16:33;7.70;99.90
39033;DHT22;24794;51.982;5.878;2023-12-20T06:17:34;7.70;99.90
39033;DHT22;24794;51.982;5.878;2023-12-20T06:18:35;7.70;99.90
39033;DHT22;24794;51.982;5.878;2023-12-20T06:19:37;7.70;99.90
39033;DHT22;24794;51.982;5.878;2023-12-20T06:20:37;7.70;99.90
39033;DHT22;24794;51.982;5.878;2023-12-20T06:21:38;7.70;99.90
39033;DHT22;24794;51.982;5.878;2023-12-20T06:22:38;7.70;99.90
39033;DHT22;24794;51.982;5.878;2023-12-20T06:23:39;7.70;99.90
39033;DHT22;24794;51.982;5.878;2023-12-20T06:24:40;7.70;99.90
39033;DHT22;24794;51.982;5.878;2023-12-20T06:25:40;7.70;99.90
39033;DHT22;24794;51.982;5.878;2023-12-20T06:26:41;7.70;99.90
39033;DHT22;24794;51.982;5.878;2023-12-20T06:27:41;7.70;99.90
39033;DHT22;24794;51.982;5.878;2023-12-20T06:28:42;7.70;99.90
39033;DHT22;24794;51.982;5.878;2023-12-20T06:29:43;7.70;99.90